createdAt,value
2018-05-14T00:01:34.049Z,13.60
2018-05-14T00:06:17.357Z,13.60
2018-05-14T00:11:00.671Z,13.60
2018-05-14T00:15:43.997Z,13.40
2018-05-14T00:20:27.336Z,13.20
2018-05-14T00:25:10.621Z,13.10
2018-05-14T00:29:53.974Z,13.10
2018-05-14T00:34:37.323Z,13.10
2018-05-14T00:39:20.640Z,12.90
2018-05-14T00:44:03.939Z,12.80
2018-05-14T00:48:48.073Z,12.70
2018-05-14T00:53:31.384Z,12.60
2018-05-14T00:58:14.706Z,12.80
2018-05-14T01:02:58.783Z,13.00
2018-05-14T01:07:42.133Z,12.90
2018-05-14T01:12:25.463Z,13.00
2018-05-14T01:17:08.781Z,12.90
2018-05-14T01:21:52.081Z,12.80
2018-05-14T01:26:35.464Z,12.60
2018-05-14T01:31:19.573Z,12.60
2018-05-14T01:36:02.903Z,12.60
2018-05-14T01:40:46.259Z,12.60
2018-05-14T01:45:29.545Z,12.50
2018-05-14T01:50:13.636Z,12.30
2018-05-14T01:54:56.976Z,12.30
2018-05-14T01:59:41.083Z,12.30
2018-05-14T02:04:25.220Z,12.20
2018-05-14T02:09:08.495Z,12.20
2018-05-14T02:13:51.827Z,12.10
2018-05-14T02:18:35.151Z,11.90
2018-05-14T02:23:18.490Z,11.50
2018-05-14T02:28:01.808Z,11.30
2018-05-14T02:32:45.138Z,11.10
2018-05-14T02:37:28.460Z,11.00
2018-05-14T02:42:11.792Z,11.00
2018-05-14T02:46:55.850Z,10.70
2018-05-14T02:51:39.208Z,10.70
2018-05-14T02:56:22.560Z,10.40
2018-05-14T03:01:05.955Z,10.10
2018-05-14T03:05:49.255Z,10.10
2018-05-14T03:10:32.667Z,10.00
2018-05-14T03:15:15.989Z,9.90
2018-05-14T03:20:00.047Z,9.80
2018-05-14T03:24:44.188Z,9.80
2018-05-14T03:29:28.276Z,9.90
2018-05-14T03:34:11.621Z,9.90
2018-05-14T03:38:54.937Z,9.90
2018-05-14T03:43:38.244Z,10.00
2018-05-14T03:48:21.542Z,10.30
2018-05-14T03:53:04.846Z,10.70
2018-05-14T03:57:48.958Z,11.00
2018-05-14T04:02:44.139Z,11.00
2018-05-14T04:07:28.241Z,11.40
2018-05-14T04:12:11.546Z,11.40
2018-05-14T04:16:56.601Z,12.00
2018-05-14T04:21:40.765Z,12.30
2018-05-14T04:26:24.140Z,12.30
2018-05-14T04:31:07.511Z,12.70
2018-05-14T04:35:50.959Z,13.00
2018-05-14T04:40:34.348Z,13.40
2018-05-14T04:45:17.905Z,13.60
2018-05-14T04:50:01.317Z,13.80
2018-05-14T04:54:44.724Z,14.00
2018-05-14T04:59:28.119Z,14.30
2018-05-14T05:04:12.242Z,14.70
2018-05-14T05:08:55.680Z,14.70
2018-05-14T05:13:39.069Z,14.90
2018-05-14T05:18:22.417Z,15.20
2018-05-14T05:23:05.722Z,15.50
2018-05-14T05:27:49.871Z,16.20
2018-05-14T05:32:33.199Z,16.20
2018-05-14T05:37:16.507Z,16.80
2018-05-14T05:42:00.540Z,17.20
2018-05-14T05:46:44.640Z,17.80
2018-05-14T05:51:27.934Z,17.80
2018-05-14T05:56:11.318Z,17.90
2018-05-14T06:00:54.596Z,18.10
2018-05-14T06:05:39.520Z,18.60
2018-05-14T06:10:22.894Z,18.60
2018-05-14T06:15:08.375Z,18.90
2018-05-14T06:19:52.553Z,19.00
2018-05-14T06:24:35.941Z,19.00
2018-05-14T06:29:20.223Z,19.00
2018-05-14T06:34:03.590Z,19.40
2018-05-14T06:38:46.958Z,19.60
2018-05-14T06:43:31.025Z,19.90
2018-05-14T06:48:14.351Z,19.90
2018-05-14T06:52:57.633Z,20.20
2018-05-14T06:57:50.204Z,20.20
2018-05-14T07:02:34.485Z,20.20
2018-05-14T07:07:18.624Z,20.40
2018-05-14T07:12:01.982Z,20.70
2018-05-14T07:16:45.275Z,21.00
2018-05-14T07:21:28.578Z,21.30
2018-05-14T07:26:11.948Z,21.70
2018-05-14T07:30:56.061Z,22.80
2018-05-14T07:35:39.391Z,22.70
2018-05-14T07:40:23.530Z,23.50
2018-05-14T07:45:06.862Z,23.40
2018-05-14T07:49:50.182Z,23.90
2018-05-14T07:54:34.267Z,24.20
2018-05-14T07:59:18.327Z,24.50
2018-05-14T08:04:01.679Z,24.50
2018-05-14T08:08:45.051Z,25.10
2018-05-14T08:13:28.355Z,25.70
2018-05-14T08:18:11.666Z,25.90
2018-05-14T08:22:55.059Z,25.60
2018-05-14T08:27:38.376Z,25.60
2018-05-14T08:32:21.692Z,25.70
2018-05-14T08:37:05.061Z,25.60
2018-05-14T08:41:48.350Z,25.80
2018-05-14T08:46:31.714Z,25.80
2018-05-14T08:51:15.098Z,25.50
2018-05-14T08:55:58.437Z,25.40
2018-05-14T09:00:41.772Z,25.70
2018-05-14T09:05:25.115Z,25.90
2018-05-14T09:10:08.445Z,25.60
2018-05-14T09:14:51.768Z,25.60
2018-05-14T09:19:35.223Z,25.40
2018-05-14T09:24:18.458Z,25.60
2018-05-14T09:29:02.561Z,25.70
2018-05-14T09:33:45.869Z,25.70
2018-05-14T09:38:29.242Z,25.30
2018-05-14T09:43:13.325Z,25.60
2018-05-14T09:47:56.633Z,25.60
2018-05-14T09:52:40.742Z,25.60
2018-05-14T09:57:24.141Z,25.60
2018-05-14T10:02:07.387Z,26.00
2018-05-14T10:06:51.573Z,25.60
2018-05-14T10:11:34.881Z,25.60
2018-05-14T10:16:18.213Z,25.40
2018-05-14T10:21:01.522Z,25.30
2018-05-14T10:25:44.811Z,25.40
2018-05-14T10:30:28.876Z,25.50
2018-05-14T10:35:12.191Z,25.50
2018-05-14T10:39:56.319Z,25.80
2018-05-14T10:44:40.455Z,25.90
2018-05-14T10:49:23.812Z,25.90
2018-05-14T10:54:07.165Z,25.90
2018-05-14T10:58:50.500Z,26.40
2018-05-14T11:03:33.819Z,26.80
2018-05-14T11:08:17.759Z,26.80
2018-05-14T11:13:01.101Z,26.80
2018-05-14T11:17:44.419Z,26.60
2018-05-14T11:22:28.570Z,26.20
2018-05-14T11:27:11.808Z,26.20
2018-05-14T11:31:55.898Z,26.20
2018-05-14T11:36:39.215Z,26.20
2018-05-14T11:41:23.280Z,26.30
2018-05-14T11:46:06.617Z,26.30
2018-05-14T11:50:50.744Z,25.90
2018-05-14T11:55:33.994Z,25.90
2018-05-14T12:05:14.362Z,26.60
2018-05-14T12:09:57.699Z,26.60
2018-05-14T12:14:41.025Z,26.20
2018-05-14T12:19:24.326Z,26.10
2018-05-14T12:24:07.653Z,26.20
2018-05-14T12:28:50.978Z,26.50
2018-05-14T12:33:34.295Z,26.70
2018-05-14T12:38:17.620Z,26.70
2018-05-14T12:43:01.704Z,26.60
2018-05-14T12:47:45.491Z,26.70
2018-05-14T12:52:28.831Z,26.80
2018-05-14T12:57:12.178Z,26.90
2018-05-14T13:01:56.720Z,26.90
2018-05-14T13:06:40.265Z,27.00
2018-05-14T13:11:23.560Z,27.10
2018-05-14T13:16:07.072Z,27.00
2018-05-14T13:20:51.162Z,26.60
2018-05-14T13:25:34.525Z,26.50
2018-05-14T13:30:17.837Z,26.70
2018-05-14T13:35:01.166Z,26.40
2018-05-14T13:39:45.256Z,26.30
2018-05-14T13:44:28.668Z,26.30
2018-05-14T13:49:12.752Z,25.90
2018-05-14T13:53:56.112Z,25.90
2018-05-14T13:58:39.404Z,26.30
2018-05-14T14:03:22.726Z,26.00
2018-05-14T14:08:06.080Z,26.50
2018-05-14T14:12:49.441Z,26.50
2018-05-14T14:17:32.792Z,26.20
2018-05-14T14:22:16.103Z,26.20
2018-05-14T14:26:59.409Z,26.00
2018-05-14T14:31:42.725Z,25.90
2018-05-14T14:36:26.156Z,25.60
2018-05-14T14:41:09.408Z,25.60
2018-05-14T14:45:52.743Z,25.50
2018-05-14T14:50:36.833Z,26.10
2018-05-14T14:55:20.168Z,25.80
2018-05-14T15:00:03.528Z,25.50
2018-05-14T15:04:46.990Z,26.00
2018-05-14T15:09:30.375Z,26.20
2018-05-14T15:14:13.749Z,25.90
2018-05-14T15:18:57.887Z,25.50
2018-05-14T15:23:41.231Z,25.40
2018-05-14T15:28:24.576Z,25.80
2018-05-14T15:33:07.909Z,25.60
2018-05-14T15:37:51.192Z,25.70
2018-05-14T15:42:35.235Z,25.60
2018-05-14T15:47:18.543Z,26.00
2018-05-14T15:52:01.875Z,26.10
2018-05-14T15:56:45.138Z,25.80
2018-05-14T16:01:28.469Z,25.60
2018-05-14T16:06:11.901Z,25.50
2018-05-14T16:10:55.240Z,26.00
2018-05-14T16:15:39.363Z,25.90
2018-05-14T16:20:22.709Z,25.80
2018-05-14T16:25:06.067Z,25.50
2018-05-14T16:29:49.404Z,25.80
2018-05-14T16:34:32.746Z,26.20
2018-05-14T16:39:16.073Z,26.50
2018-05-14T16:43:59.404Z,26.30
2018-05-14T16:48:42.783Z,26.30
2018-05-14T16:53:26.108Z,26.40
2018-05-14T16:58:09.407Z,25.60
2018-05-14T17:02:53.552Z,26.10
2018-05-14T17:07:37.734Z,25.90
2018-05-14T17:12:21.085Z,25.90
2018-05-14T17:17:04.633Z,25.40
2018-05-14T17:21:48.073Z,25.40
2018-05-14T17:26:31.461Z,24.40
2018-05-14T17:31:15.498Z,22.50
2018-05-14T17:35:58.869Z,22.50
2018-05-14T17:40:42.307Z,21.10
2018-05-14T17:45:35.651Z,20.20
2018-05-14T17:50:19.787Z,19.30
2018-05-14T17:55:03.310Z,19.30
2018-05-14T17:59:46.668Z,19.00
2018-05-14T18:04:30.843Z,18.50
2018-05-14T18:09:14.256Z,18.50
2018-05-14T18:13:58.332Z,18.20
2018-05-14T18:18:41.654Z,18.20
2018-05-14T18:23:24.971Z,18.10
2018-05-14T18:28:16.991Z,17.90
2018-05-14T18:33:02.267Z,17.90
2018-05-14T18:37:45.599Z,17.80
2018-05-14T18:42:29.024Z,17.70
2018-05-14T18:47:13.223Z,17.30
2018-05-14T18:51:56.602Z,17.30
2018-05-14T18:56:41.661Z,17.20
2018-05-14T19:01:25.078Z,17.10
2018-05-14T19:06:08.385Z,17.00
2018-05-14T19:10:59.139Z,16.80
2018-05-14T19:15:54.590Z,16.60
2018-05-14T19:20:38.962Z,16.60
2018-05-14T19:25:23.165Z,16.50
2018-05-14T19:30:07.063Z,16.50
2018-05-14T19:34:58.858Z,16.50
2018-05-14T19:39:48.084Z,16.40
2018-05-14T19:44:31.597Z,16.30
2018-05-14T19:49:15.085Z,16.20
2018-05-14T19:53:58.642Z,16.10
2018-05-14T19:58:45.205Z,16.00
2018-05-14T20:08:20.740Z,15.80
2018-05-14T20:13:06.038Z,15.50
2018-05-14T20:17:49.586Z,15.50
2018-05-14T20:22:34.798Z,15.40
2018-05-14T20:32:17.004Z,14.80
2018-05-14T20:37:00.406Z,14.80
2018-05-14T20:41:43.853Z,14.70
2018-05-14T20:46:27.208Z,14.60
2018-05-14T20:51:10.564Z,14.50
2018-05-14T20:55:53.965Z,14.40
2018-05-14T21:00:37.406Z,14.20
2018-05-14T21:05:20.859Z,14.10
2018-05-14T21:10:04.261Z,14.00
2018-05-14T21:14:47.769Z,13.80
2018-05-14T21:19:31.144Z,13.60
2018-05-14T21:24:14.571Z,13.60
2018-05-14T21:28:58.078Z,13.40
2018-05-14T21:33:41.401Z,13.30
2018-05-14T21:38:24.831Z,13.20
2018-05-14T21:43:08.193Z,13.10
2018-05-14T21:47:51.556Z,13.00
2018-05-14T21:52:36.162Z,12.80
2018-05-14T21:57:19.713Z,12.70
2018-05-14T22:02:03.102Z,12.60
2018-05-14T22:06:46.408Z,12.50
2018-05-14T22:11:29.917Z,12.20
2018-05-14T22:16:14.008Z,12.30
2018-05-14T22:20:57.353Z,12.30
2018-05-14T22:25:40.659Z,12.50
2018-05-14T22:30:23.974Z,12.30
2018-05-14T22:35:07.369Z,12.20
2018-05-14T22:39:50.770Z,12.40
2018-05-14T22:44:34.868Z,12.40
2018-05-14T22:49:21.899Z,12.40
2018-05-14T22:54:05.676Z,12.10
2018-05-14T22:58:49.011Z,11.90
2018-05-14T23:03:32.347Z,11.90
2018-05-14T23:08:15.653Z,11.90
2018-05-14T23:12:59.787Z,12.10
2018-05-14T23:17:43.139Z,12.00
2018-05-14T23:22:38.120Z,12.00
2018-05-14T23:27:22.235Z,11.90
2018-05-14T23:32:05.699Z,11.90
2018-05-14T23:36:49.153Z,11.70
2018-05-14T23:41:32.467Z,11.70
2018-05-14T23:46:15.904Z,11.70
2018-05-14T23:50:59.272Z,11.60
2018-05-14T23:55:42.639Z,11.60
